sensor_id;sensor_type;location;lat;lon;timestamp;pressure;altitude;pressure_sealevel;temperature;humidity
21869;BME280;11099;41.564;23.296;2022-12-10T00:01:18;97291.03;;;14.06;100.00
21869;BME280;11099;41.564;23.296;2022-12-10T00:12:47;97207.59;;;13.10;100.00
21869;BME280;11099;41.564;23.296;2022-12-10T00:20:31;97313.69;;;13.96;100.00
21869;BME280;11099;41.564;23.296;2022-12-10T00:23:08;97204.72;;;13.15;100.00
21869;BME280;11099;41.564;23.296;2022-12-10T00:26:20;97317.38;;;14.04;100.00
21869;BME280;11099;41.564;23.296;2022-12-10T00:28:56;97273.03;;;13.58;100.00
21869;BME280;11099;41.564;23.296;2022-12-10T00:31:33;97261.50;;;13.45;100.00
21869;BME280;11099;41.564;23.296;2022-12-10T00:34:15;97279.00;;;13.42;100.00
21869;BME280;11099;41.564;23.296;2022-12-10T00:36:48;97311.06;;;13.76;100.00
21869;BME280;11099;41.564;23.296;2022-12-10T00:39:31;97281.66;;;13.76;100.00
21869;BME280;11099;41.564;23.296;2022-12-10T00:42:15;97210.97;;;13.19;100.00
21869;BME280;11099;41.564;23.296;2022-12-10T00:45:09;97273.56;;;13.51;100.00
21869;BME280;11099;41.564;23.296;2022-12-10T00:47:51;97204.34;;;13.04;100.00
21869;BME280;11099;41.564;23.296;2022-12-10T00:50:24;97194.63;;;13.00;100.00
21869;BME280;11099;41.564;23.296;2022-12-10T00:52:52;97200.78;;;13.12;100.00
21869;BME280;11099;41.564;23.296;2022-12-10T00:55:26;97220.31;;;13.46;100.00
21869;BME280;11099;41.564;23.296;2022-12-10T00:57:58;97310.31;;;13.87;100.00
21869;BME280;11099;41.564;23.296;2022-12-10T01:00:36;97310.88;;;13.81;100.00
21869;BME280;11099;41.564;23.296;2022-12-10T01:03:18;97223.59;;;13.31;100.00
21869;BME280;11099;41.564;23.296;2022-12-10T01:05:49;97202.56;;;13.08;100.00
21869;BME280;11099;41.564;23.296;2022-12-10T01:08:24;97287.69;;;13.85;100.00
21869;BME280;11099;41.564;23.296;2022-12-10T01:10:55;97288.00;;;13.83;100.00
21869;BME280;11099;41.564;23.296;2022-12-10T01:13:23;97234.31;;;13.43;100.00
21869;BME280;11099;41.564;23.296;2022-12-10T01:16:07;97295.81;;;13.76;100.00
21869;BME280;11099;41.564;23.296;2022-12-10T01:18:41;97298.59;;;13.80;100.00
21869;BME280;11099;41.564;23.296;2022-12-10T01:21:20;97225.72;;;13.04;100.00
21869;BME280;11099;41.564;23.296;2022-12-10T01:23:51;97207.59;;;13.10;100.00
21869;BME280;11099;41.564;23.296;2022-12-10T01:26:24;97202.19;;;12.98;100.00
21869;BME280;11099;41.564;23.296;2022-12-10T01:28:54;97277.25;;;13.59;100.00
21869;BME280;11099;41.564;23.296;2022-12-10T01:31:44;97221.16;;;13.05;100.00
21869;BME280;11099;41.564;23.296;2022-12-10T01:34:19;97255.47;;;13.36;100.00
21869;BME280;11099;41.564;23.296;2022-12-10T01:36:52;97222.81;;;13.30;100.00
21869;BME280;11099;41.564;23.296;2022-12-10T01:39:28;97178.44;;;12.84;100.00
21869;BME280;11099;41.564;23.296;2022-12-10T01:42:00;97285.41;;;13.62;100.00
21869;BME280;11099;41.564;23.296;2022-12-10T01:47:12;97207.00;;;13.04;100.00
21869;BME280;11099;41.564;23.296;2022-12-10T01:49:45;97274.28;;;13.73;100.00
21869;BME280;11099;41.564;23.296;2022-12-10T01:52:21;97203.94;;;13.14;100.00
21869;BME280;11099;41.564;23.296;2022-12-10T01:54:55;97195.53;;;13.04;100.00
21869;BME280;11099;41.564;23.296;2022-12-10T01:57:26;97219.91;;;13.23;100.00
21869;BME280;11099;41.564;23.296;2022-12-10T02:00:06;97286.19;;;13.63;100.00
21869;BME280;11099;41.564;23.296;2022-12-10T02:02:46;97191.03;;;12.96;100.00
21869;BME280;11099;41.564;23.296;2022-12-10T02:05:41;97201.81;;;13.20;100.00
21869;BME280;11099;41.564;23.296;2022-12-10T02:08:27;97273.28;;;13.77;100.00
21869;BME280;11099;41.564;23.296;2022-12-10T02:11:24;97155.38;;;12.79;100.00
21869;BME280;11099;41.564;23.296;2022-12-10T02:14:02;97200.91;;;13.16;100.00
21869;BME280;11099;41.564;23.296;2022-12-10T02:23:01;97279.25;;;13.62;100.00
21869;BME280;11099;41.564;23.296;2022-12-10T02:25:59;97271.41;;;13.44;100.00
21869;BME280;11099;41.564;23.296;2022-12-10T02:31:29;97258.53;;;13.47;100.00
21869;BME280;11099;41.564;23.296;2022-12-10T02:34:00;97159.63;;;12.80;100.00
21869;BME280;11099;41.564;23.296;2022-12-10T02:36:40;97177.88;;;12.90;100.00
21869;BME280;11099;41.564;23.296;2022-12-10T02:39:15;97258.16;;;13.36;100.00
21869;BME280;11099;41.564;23.296;2022-12-10T02:41:49;97130.00;;;12.52;100.00
21869;BME280;11099;41.564;23.296;2022-12-10T02:44:21;97173.66;;;12.89;100.00
21869;BME280;11099;41.564;23.296;2022-12-10T02:46:54;97257.63;;;13.42;100.00
21869;BME280;11099;41.564;23.296;2022-12-10T02:49:24;97173.94;;;12.76;100.00
21869;BME280;11099;41.564;23.296;2022-12-10T02:51:57;97220.22;;;13.22;100.00
21869;BME280;11099;41.564;23.296;2022-12-10T02:54:40;97143.78;;;12.75;100.00
21869;BME280;11099;41.564;23.296;2022-12-10T03:00:05;97148.81;;;12.77;100.00
21869;BME280;11099;41.564;23.296;2022-12-10T03:06:03;97227.56;;;13.58;100.00
21869;BME280;11099;41.564;23.296;2022-12-10T03:08:38;97227.25;;;13.71;100.00
21869;BME280;11099;41.564;23.296;2022-12-10T03:14:02;97231.72;;;13.92;100.00
21869;BME280;11099;41.564;23.296;2022-12-10T03:17:12;97224.03;;;14.03;100.00
21869;BME280;11099;41.564;23.296;2022-12-10T03:19:33;97151.22;;;13.48;100.00
21869;BME280;11099;41.564;23.296;2022-12-10T03:22:04;97148.91;;;13.47;100.00
21869;BME280;11099;41.564;23.296;2022-12-10T03:24:35;97228.38;;;13.95;100.00
21869;BME280;11099;41.564;23.296;2022-12-10T03:27:04;97120.78;;;13.40;100.00
21869;BME280;11099;41.564;23.296;2022-12-10T03:29:47;97223.69;;;14.04;100.00
21869;BME280;11099;41.564;23.296;2022-12-10T03:32:21;97212.88;;;14.01;100.00
21869;BME280;11099;41.564;23.296;2022-12-10T03:34:59;97090.22;;;13.17;100.00
21869;BME280;11099;41.564;23.296;2022-12-10T03:37:29;97102.47;;;13.18;100.00
21869;BME280;11099;41.564;23.296;2022-12-10T03:40:01;97116.69;;;13.31;100.00
21869;BME280;11099;41.564;23.296;2022-12-10T03:42:32;97218.22;;;14.01;100.00
21869;BME280;11099;41.564;23.296;2022-12-10T03:45:05;97079.19;;;13.06;100.00
21869;BME280;11099;41.564;23.296;2022-12-10T03:47:35;97209.19;;;14.05;100.00
21869;BME280;11099;41.564;23.296;2022-12-10T03:50:06;97133.63;;;13.47;100.00
21869;BME280;11099;41.564;23.296;2022-12-10T03:52:33;97142.31;;;13.56;100.00
21869;BME280;11099;41.564;23.296;2022-12-10T03:55:01;97188.44;;;13.78;100.00
21869;BME280;11099;41.564;23.296;2022-12-10T06:30:39;97092.28;;;13.44;100.00
21869;BME280;11099;41.564;23.296;2022-12-10T06:46:14;97075.34;;;13.28;100.00
21869;BME280;11099;41.564;23.296;2022-12-10T06:48:47;97122.03;;;13.55;100.00
21869;BME280;11099;41.564;23.296;2022-12-10T06:51:28;97098.63;;;13.64;100.00
21869;BME280;11099;41.564;23.296;2022-12-10T06:54:13;97140.53;;;13.85;100.00
21869;BME280;11099;41.564;23.296;2022-12-10T06:56:48;97179.75;;;14.17;100.00
21869;BME280;11099;41.564;23.296;2022-12-10T06:59:19;97082.13;;;13.50;100.00
21869;BME280;11099;41.564;23.296;2022-12-10T07:02:12;97099.97;;;13.70;100.00
21869;BME280;11099;41.564;23.296;2022-12-10T07:04:52;97022.28;;;13.18;100.00
21869;BME280;11099;41.564;23.296;2022-12-10T08:38:43;97074.19;;;12.59;100.00
21869;BME280;11099;41.564;23.296;2022-12-10T08:41:20;97115.00;;;12.81;100.00
21869;BME280;11099;41.564;23.296;2022-12-10T08:43:48;97108.00;;;12.88;100.00
21869;BME280;11099;41.564;23.296;2022-12-10T08:46:15;97106.16;;;13.13;100.00
21869;BME280;11099;41.564;23.296;2022-12-10T08:48:42;97084.47;;;12.70;100.00
21869;BME280;11099;41.564;23.296;2022-12-10T08:51:10;97135.78;;;13.08;100.00
21869;BME280;11099;41.564;23.296;2022-12-10T08:53:35;97174.03;;;13.45;100.00
21869;BME280;11099;41.564;23.296;2022-12-10T08:56:01;97166.59;;;13.51;100.00
21869;BME280;11099;41.564;23.296;2022-12-10T08:58:27;97118.78;;;13.50;100.00
21869;BME280;11099;41.564;23.296;2022-12-10T09:00:52;97147.28;;;13.21;100.00
21869;BME280;11099;41.564;23.296;2022-12-10T09:03:18;97120.56;;;13.45;100.00
21869;BME280;11099;41.564;23.296;2022-12-10T09:05:44;97135.97;;;13.49;100.00
21869;BME280;11099;41.564;23.296;2022-12-10T09:08:10;97131.25;;;13.45;100.00
21869;BME280;11099;41.564;23.296;2022-12-10T09:10:37;97111.66;;;13.66;100.00
21869;BME280;11099;41.564;23.296;2022-12-10T09:13:03;97085.38;;;13.31;100.00
21869;BME280;11099;41.564;23.296;2022-12-10T09:15:29;97107.66;;;13.60;100.00
21869;BME280;11099;41.564;23.296;2022-12-10T09:17:54;97098.97;;;13.51;100.00
21869;BME280;11099;41.564;23.296;2022-12-10T09:20:20;97110.22;;;13.68;100.00
21869;BME280;11099;41.564;23.296;2022-12-10T09:22:45;97093.63;;;13.63;100.00
21869;BME280;11099;41.564;23.296;2022-12-10T09:25:11;97123.56;;;14.05;100.00
21869;BME280;11099;41.564;23.296;2022-12-10T09:27:40;97101.38;;;14.05;100.00
21869;BME280;11099;41.564;23.296;2022-12-10T09:30:07;97121.66;;;14.06;100.00
21869;BME280;11099;41.564;23.296;2022-12-10T09:32:32;97121.34;;;14.07;100.00
21869;BME280;11099;41.564;23.296;2022-12-10T09:34:58;97117.97;;;14.10;100.00
21869;BME280;11099;41.564;23.296;2022-12-10T09:37:23;97090.13;;;13.87;100.00
21869;BME280;11099;41.564;23.296;2022-12-10T09:39:49;97043.25;;;13.40;100.00
21869;BME280;11099;41.564;23.296;2022-12-10T09:43:12;97095.13;;;14.01;100.00
21869;BME280;11099;41.564;23.296;2022-12-10T09:50:55;97084.75;;;13.99;100.00
21869;BME280;11099;41.564;23.296;2022-12-10T09:53:28;97071.84;;;14.01;100.00
21869;BME280;11099;41.564;23.296;2022-12-10T09:55:55;97077.38;;;14.08;100.00
21869;BME280;11099;41.564;23.296;2022-12-10T09:58:24;97099.19;;;14.35;100.00
21869;BME280;11099;41.564;23.296;2022-12-10T10:01:02;97096.47;;;14.47;100.00
21869;BME280;11099;41.564;23.296;2022-12-10T10:03:32;97062.47;;;14.35;100.00
21869;BME280;11099;41.564;23.296;2022-12-10T10:06:03;97080.44;;;14.22;100.00
21869;BME280;11099;41.564;23.296;2022-12-10T10:08:31;97075.50;;;14.09;100.00
21869;BME280;11099;41.564;23.296;2022-12-10T10:10:59;97045.13;;;14.17;100.00
21869;BME280;11099;41.564;23.296;2022-12-10T10:13:44;97071.38;;;14.52;100.00
21869;BME280;11099;41.564;23.296;2022-12-10T10:19:00;97038.34;;;14.47;100.00
21869;BME280;11099;41.564;23.296;2022-12-10T10:21:27;97051.75;;;14.35;100.00
21869;BME280;11099;41.564;23.296;2022-12-10T10:23:55;97037.84;;;14.58;100.00
21869;BME280;11099;41.564;23.296;2022-12-10T10:26:24;97028.53;;;14.83;100.00
21869;BME280;11099;41.564;23.296;2022-12-10T10:28:56;96955.34;;;14.63;100.00
21869;BME280;11099;41.564;23.296;2022-12-10T10:31:25;96997.41;;;15.10;100.00
21869;BME280;11099;41.564;23.296;2022-12-10T10:33:57;97021.53;;;15.26;100.00
21869;BME280;11099;41.564;23.296;2022-12-10T10:36:34;97016.84;;;15.39;100.00
21869;BME280;11099;41.564;23.296;2022-12-10T10:41:42;96998.38;;;15.69;100.00
21869;BME280;11099;41.564;23.296;2022-12-10T10:44:20;96967.13;;;15.61;100.00
21869;BME280;11099;41.564;23.296;2022-12-10T10:46:48;97000.81;;;15.93;100.00
21869;BME280;11099;41.564;23.296;2022-12-10T10:49:31;96985.59;;;16.01;100.00
21869;BME280;11099;41.564;23.296;2022-12-10T10:52:13;96991.75;;;16.01;100.00
21869;BME280;11099;41.564;23.296;2022-12-10T10:54:42;96992.53;;;16.02;100.00
21869;BME280;11099;41.564;23.296;2022-12-10T10:59:38;96948.94;;;15.70;100.00
21869;BME280;11099;41.564;23.296;2022-12-10T11:02:41;96980.78;;;15.20;100.00
21869;BME280;11099;41.564;23.296;2022-12-10T11:05:15;96984.16;;;15.33;100.00
21869;BME280;11099;41.564;23.296;2022-12-10T11:07:42;96912.72;;;14.74;100.00
21869;BME280;11099;41.564;23.296;2022-12-10T11:10:19;96983.69;;;14.96;100.00
21869;BME280;11099;41.564;23.296;2022-12-10T11:12:57;96956.13;;;14.80;100.00
21869;BME280;11099;41.564;23.296;2022-12-10T11:15:41;96957.31;;;14.66;100.00
21869;BME280;11099;41.564;23.296;2022-12-10T11:18:35;96950.84;;;14.67;100.00
21869;BME280;11099;41.564;23.296;2022-12-10T11:21:05;96963.63;;;14.58;100.00
21869;BME280;11099;41.564;23.296;2022-12-10T11:23:37;96962.16;;;14.61;100.00
21869;BME280;11099;41.564;23.296;2022-12-10T11:34:20;96922.56;;;14.86;100.00
21869;BME280;11099;41.564;23.296;2022-12-10T11:37:42;96933.91;;;14.95;100.00
21869;BME280;11099;41.564;23.296;2022-12-10T11:40:32;96917.06;;;14.79;100.00
21869;BME280;11099;41.564;23.296;2022-12-10T11:50:49;96918.00;;;14.55;100.00
21869;BME280;11099;41.564;23.296;2022-12-10T11:53:38;96917.22;;;14.70;100.00
21869;BME280;11099;41.564;23.296;2022-12-10T12:01:44;96906.66;;;14.61;100.00
21869;BME280;11099;41.564;23.296;2022-12-10T12:07:38;96869.84;;;14.42;100.00
21869;BME280;11099;41.564;23.296;2022-12-10T12:09:58;96914.44;;;14.66;100.00
21869;BME280;11099;41.564;23.296;2022-12-10T12:15:28;96913.94;;;14.76;100.00
21869;BME280;11099;41.564;23.296;2022-12-10T12:20:58;96916.72;;;14.64;100.00
21869;BME280;11099;41.564;23.296;2022-12-10T12:26:17;96889.94;;;14.48;100.00
21869;BME280;11099;41.564;23.296;2022-12-10T12:28:53;96844.63;;;14.28;100.00
21869;BME280;11099;41.564;23.296;2022-12-10T12:31:32;96856.97;;;14.16;100.00
21869;BME280;11099;41.564;23.296;2022-12-10T12:34:03;96864.66;;;14.34;100.00
21869;BME280;11099;41.564;23.296;2022-12-10T12:36:33;96876.97;;;14.51;100.00
21869;BME280;11099;41.564;23.296;2022-12-10T12:39:37;96871.53;;;14.47;100.00
21869;BME280;11099;41.564;23.296;2022-12-10T12:42:06;96868.16;;;14.50;100.00
21869;BME280;11099;41.564;23.296;2022-12-10T12:44:57;96840.03;;;14.44;100.00
21869;BME280;11099;41.564;23.296;2022-12-10T12:50:33;96857.00;;;14.64;100.00
21869;BME280;11099;41.564;23.296;2022-12-10T12:53:02;96852.06;;;14.66;100.00
21869;BME280;11099;41.564;23.296;2022-12-10T13:00:52;96842.75;;;14.60;100.00
21869;BME280;11099;41.564;23.296;2022-12-10T13:03:36;96837.81;;;14.46;100.00
21869;BME280;11099;41.564;23.296;2022-12-10T13:09:16;96852.25;;;14.57;100.00
21869;BME280;11099;41.564;23.296;2022-12-10T13:14:33;96853.00;;;14.42;100.00
21869;BME280;11099;41.564;23.296;2022-12-10T13:17:22;96834.13;;;14.35;100.00
21869;BME280;11099;41.564;23.296;2022-12-10T13:19:49;96848.00;;;14.40;100.00
21869;BME280;11099;41.564;23.296;2022-12-10T13:25:16;96842.91;;;14.35;100.00
21869;BME280;11099;41.564;23.296;2022-12-10T13:27:54;96817.19;;;14.15;100.00
21869;BME280;11099;41.564;23.296;2022-12-10T13:33:17;96825.81;;;13.92;100.00
21869;BME280;11099;41.564;23.296;2022-12-10T13:36:03;96817.34;;;13.90;100.00
21869;BME280;11099;41.564;23.296;2022-12-10T13:38:29;96826.56;;;13.93;100.00
21869;BME280;11099;41.564;23.296;2022-12-10T13:41:05;96804.31;;;13.89;100.00
21869;BME280;11099;41.564;23.296;2022-12-10T13:43:55;96830.72;;;14.06;100.00
21869;BME280;11099;41.564;23.296;2022-12-10T13:49:27;96820.22;;;14.13;100.00
21869;BME280;11099;41.564;23.296;2022-12-10T13:52:03;96820.47;;;14.24;100.00
21869;BME280;11099;41.564;23.296;2022-12-10T14:05:42;96815.78;;;14.37;100.00
21869;BME280;11099;41.564;23.296;2022-12-10T14:08:18;96814.66;;;14.38;100.00
21869;BME280;11099;41.564;23.296;2022-12-10T14:10:45;96816.66;;;14.41;100.00
21869;BME280;11099;41.564;23.296;2022-12-10T14:13:14;96814.94;;;14.48;100.00
21869;BME280;11099;41.564;23.296;2022-12-10T14:15:53;96770.56;;;14.16;100.00
21869;BME280;11099;41.564;23.296;2022-12-10T14:18:21;96770.03;;;14.26;100.00
21869;BME280;11099;41.564;23.296;2022-12-10T14:20:52;96785.72;;;14.43;100.00
21869;BME280;11099;41.564;23.296;2022-12-10T14:23:30;96771.50;;;14.23;100.00
21869;BME280;11099;41.564;23.296;2022-12-10T14:26:09;96775.63;;;14.37;100.00
21869;BME280;11099;41.564;23.296;2022-12-10T14:28:41;96781.84;;;14.41;100.00
21869;BME280;11099;41.564;23.296;2022-12-10T14:31:13;96764.00;;;14.29;100.00
21869;BME280;11099;41.564;23.296;2022-12-10T14:33:40;96774.69;;;14.45;100.00
21869;BME280;11099;41.564;23.296;2022-12-10T14:36:06;96760.44;;;14.41;100.00
21869;BME280;11099;41.564;23.296;2022-12-10T14:38:33;96753.34;;;14.33;100.00
21869;BME280;11099;41.564;23.296;2022-12-10T14:41:00;96738.78;;;14.30;100.00
21869;BME280;11099;41.564;23.296;2022-12-10T14:43:35;96725.28;;;14.27;100.00
21869;BME280;11099;41.564;23.296;2022-12-10T14:46:03;96747.66;;;14.34;100.00
21869;BME280;11099;41.564;23.296;2022-12-10T14:48:29;96747.09;;;14.44;100.00
21869;BME280;11099;41.564;23.296;2022-12-10T14:51:10;96742.47;;;14.41;100.00
21869;BME280;11099;41.564;23.296;2022-12-10T14:53:37;96742.88;;;14.43;100.00
21869;BME280;11099;41.564;23.296;2022-12-10T14:56:05;96717.63;;;14.25;100.00
21869;BME280;11099;41.564;23.296;2022-12-10T14:58:41;96737.47;;;14.40;100.00
21869;BME280;11099;41.564;23.296;2022-12-10T15:01:14;96750.59;;;14.45;100.00
21869;BME280;11099;41.564;23.296;2022-12-10T15:03:45;96735.50;;;14.21;100.00
21869;BME280;11099;41.564;23.296;2022-12-10T15:06:17;96737.91;;;14.26;100.00
21869;BME280;11099;41.564;23.296;2022-12-10T15:08:45;96731.94;;;14.17;100.00
21869;BME280;11099;41.564;23.296;2022-12-10T15:11:17;96735.66;;;14.28;100.00
21869;BME280;11099;41.564;23.296;2022-12-10T15:13:47;96728.56;;;13.85;100.00
21869;BME280;11099;41.564;23.296;2022-12-10T15:33:03;96657.28;;;13.01;100.00
21869;BME280;11099;41.564;23.296;2022-12-10T17:01:42;96623.28;;;13.45;100.00
21869;BME280;11099;41.564;23.296;2022-12-10T17:06:53;96541.63;;;13.01;100.00
21869;BME280;11099;41.564;23.296;2022-12-10T17:09:41;96577.91;;;13.17;100.00
21869;BME280;11099;41.564;23.296;2022-12-10T17:12:50;96539.66;;;12.82;100.00
21869;BME280;11099;41.564;23.296;2022-12-10T17:25:41;96584.06;;;13.50;100.00
21869;BME280;11099;41.564;23.296;2022-12-10T17:28:18;96467.09;;;12.80;100.00
21869;BME280;11099;41.564;23.296;2022-12-10T17:33:33;96567.91;;;13.62;100.00
21869;BME280;11099;41.564;23.296;2022-12-10T17:36:03;96451.75;;;13.24;100.00
21869;BME280;11099;41.564;23.296;2022-12-10T17:38:34;96567.84;;;14.32;100.00
21869;BME280;11099;41.564;23.296;2022-12-10T17:41:02;96481.16;;;13.98;100.00
21869;BME280;11099;41.564;23.296;2022-12-10T17:43:32;96552.78;;;14.63;100.00
21869;BME280;11099;41.564;23.296;2022-12-10T17:46:02;96502.66;;;14.44;100.00
21869;BME280;11099;41.564;23.296;2022-12-10T17:48:28;96543.88;;;14.78;100.00
21869;BME280;11099;41.564;23.296;2022-12-10T17:50:56;96518.31;;;14.61;100.00
21869;BME280;11099;41.564;23.296;2022-12-10T17:53:30;96522.03;;;14.76;100.00
21869;BME280;11099;41.564;23.296;2022-12-10T17:56:08;96535.66;;;14.90;100.00
21869;BME280;11099;41.564;23.296;2022-12-10T17:58:36;96541.72;;;14.87;100.00
21869;BME280;11099;41.564;23.296;2022-12-10T18:01:09;96539.88;;;14.91;100.00
21869;BME280;11099;41.564;23.296;2022-12-10T18:03:37;96459.06;;;14.43;100.00
21869;BME280;11099;41.564;23.296;2022-12-10T18:06:18;96456.34;;;14.40;100.00
21869;BME280;11099;41.564;23.296;2022-12-10T18:08:48;96530.00;;;14.95;100.00
21869;BME280;11099;41.564;23.296;2022-12-10T18:11:27;96406.88;;;14.11;100.00
21869;BME280;11099;41.564;23.296;2022-12-10T18:14:01;96466.25;;;14.59;100.00
21869;BME280;11099;41.564;23.296;2022-12-10T18:52:05;96477.38;;;13.99;100.00
21869;BME280;11099;41.564;23.296;2022-12-10T18:57:18;96466.28;;;13.62;100.00
21869;BME280;11099;41.564;23.296;2022-12-10T19:04:59;96397.63;;;13.11;100.00
21869;BME280;11099;41.564;23.296;2022-12-10T19:07:35;96365.81;;;12.87;100.00
21869;BME280;11099;41.564;23.296;2022-12-10T19:10:21;96370.03;;;13.07;100.00
21869;BME280;11099;41.564;23.296;2022-12-10T19:12:56;96431.03;;;13.56;100.00
21869;BME280;11099;41.564;23.296;2022-12-10T19:15:44;96362.97;;;13.15;100.00
21869;BME280;11099;41.564;23.296;2022-12-10T19:18:20;96441.19;;;13.66;100.00
21869;BME280;11099;41.564;23.296;2022-12-10T19:20:55;96392.13;;;13.39;100.00
21869;BME280;11099;41.564;23.296;2022-12-10T19:23:21;96424.00;;;13.67;100.00
21869;BME280;11099;41.564;23.296;2022-12-10T19:25:50;96412.81;;;13.81;100.00
21869;BME280;11099;41.564;23.296;2022-12-10T19:28:23;96413.94;;;13.80;100.00
21869;BME280;11099;41.564;23.296;2022-12-10T19:30:56;96336.84;;;13.24;100.00
21869;BME280;11099;41.564;23.296;2022-12-10T19:36:37;96370.03;;;13.81;100.00
21869;BME280;11099;41.564;23.296;2022-12-10T19:39:20;96414.28;;;14.17;100.00
21869;BME280;11099;41.564;23.296;2022-12-10T19:41:49;96381.00;;;13.57;100.00
21869;BME280;11099;41.564;23.296;2022-12-10T19:44:27;96335.06;;;13.51;100.00
21869;BME280;11099;41.564;23.296;2022-12-10T19:46:58;96328.66;;;13.56;100.00
21869;BME280;11099;41.564;23.296;2022-12-10T19:49:39;96286.19;;;13.51;100.00
21869;BME280;11099;41.564;23.296;2022-12-10T19:52:13;96281.66;;;13.55;100.00
21869;BME280;11099;41.564;23.296;2022-12-10T19:54:44;96317.69;;;13.61;100.00
21869;BME280;11099;41.564;23.296;2022-12-10T19:57:14;96398.34;;;14.05;100.00
21869;BME280;11099;41.564;23.296;2022-12-10T19:59:55;96390.19;;;13.98;100.00
21869;BME280;11099;41.564;23.296;2022-12-10T20:02:35;96261.16;;;13.20;100.00
21869;BME280;11099;41.564;23.296;2022-12-10T20:05:11;96363.03;;;13.96;100.00
21869;BME280;11099;41.564;23.296;2022-12-10T20:07:50;96284.72;;;13.53;100.00
21869;BME280;11099;41.564;23.296;2022-12-10T20:10:28;96334.50;;;14.04;100.00
21869;BME280;11099;41.564;23.296;2022-12-10T20:13:04;96288.25;;;13.80;100.00
21869;BME280;11099;41.564;23.296;2022-12-10T20:15:40;96327.16;;;14.01;100.00
21869;BME280;11099;41.564;23.296;2022-12-10T20:18:15;96302.19;;;14.16;100.00
21869;BME280;11099;41.564;23.296;2022-12-10T20:20:52;96334.19;;;14.55;100.00
21869;BME280;11099;41.564;23.296;2022-12-10T20:23:44;96315.25;;;14.67;100.00
21869;BME280;11099;41.564;23.296;2022-12-10T20:26:27;96201.13;;;14.06;100.00
21869;BME280;11099;41.564;23.296;2022-12-10T20:29:25;96206.41;;;14.52;100.00
21869;BME280;11099;41.564;23.296;2022-12-10T21:20:48;96092.16;;;14.33;100.00
21869;BME280;11099;41.564;23.296;2022-12-10T21:23:45;96163.50;;;14.78;100.00
21869;BME280;11099;41.564;23.296;2022-12-10T21:52:21;96182.59;;;13.93;100.00
21869;BME280;11099;41.564;23.296;2022-12-10T21:54:57;96184.56;;;13.96;100.00
21869;BME280;11099;41.564;23.296;2022-12-10T21:57:25;96195.16;;;13.89;100.00
21869;BME280;11099;41.564;23.296;2022-12-10T22:18:30;96132.94;;;14.22;100.00
21869;BME280;11099;41.564;23.296;2022-12-10T22:21:32;96028.78;;;14.07;100.00
21869;BME280;11099;41.564;23.296;2022-12-10T22:29:26;96111.13;;;14.84;100.00
21869;BME280;11099;41.564;23.296;2022-12-10T23:00:26;96027.06;;;16.17;100.00
21869;BME280;11099;41.564;23.296;2022-12-10T23:36:22;95975.34;;;16.38;100.00
21869;BME280;11099;41.564;23.296;2022-12-10T23:38:49;95906.59;;;15.97;100.00
21869;BME280;11099;41.564;23.296;2022-12-10T23:41:20;95932.72;;;16.18;100.00
